SE Lincoln WX Station Historical Data
Daily Summary for April 07, 2020 Units:  Metric    English   Both
Daily Weekly Monthly Yearly Custom
  High: Low: Average:
Temperature: 31.6 °C 13.3 °C 20.3 °C
Dew Point: 14.7 °C 1.3 °C 10.7 °C
Humidity: 95% 14.6% 67%
Wind Speed: 10.6km/h 1km/h 4.7km/h
Wind Gust: 27.4km/h - -
Wind- - WSW
Pressure: 1007.3 hPa 1004.3 hPa -
Precipitation: 0 mm    
 
Tabular Data for April 07, 2020
Time Temperature Dew Point Pressure Wind Wind Speed Wind Gust Humidity Rainfall Rate (Hourly) solar
00:04 18.1 °C 14.4 °C 1006 hPa SW 6.4 km/h 16.1 km/h 79% 0 mm 0 W/m2
00:09 18.1 °C 14.4 °C 1006 hPa SSW 7.4 km/h 16.1 km/h 79.2% 0 mm 0 W/m2
00:14 18 °C 14.5 °C 1006 hPa SW 6 km/h 12.9 km/h 80% 0 mm 0 W/m2
00:19 17.9 °C 14.4 °C 1006 hPa SSW 8.9 km/h 20.9 km/h 80% 0 mm 0 W/m2
00:24 17.9 °C 14.4 °C 1006.3 hPa SW 7.9 km/h 20.9 km/h 80% 0 mm 0 W/m2
00:29 17.9 °C 14.6 °C 1006.3 hPa SSW 7.1 km/h 20.9 km/h 80.9% 0 mm 0 W/m2
00:34 17.8 °C 14.6 °C 1006.3 hPa SW 7.4 km/h 20.9 km/h 81% 0 mm 0 W/m2
00:39 17.8 °C 14.5 °C 1006.3 hPa SSW 7.1 km/h 14.5 km/h 81% 0 mm 0 W/m2
00:44 17.8 °C 14.6 °C 1006.3 hPa SSW 8.9 km/h 17.7 km/h 81.5% 0 mm 0 W/m2
00:49 17.8 °C 14.7 °C 1006.3 hPa SSW 6.4 km/h 19.3 km/h 82% 0 mm 0 W/m2
00:54 17.7 °C 14.6 °C 1006.3 hPa SSW 6 km/h 12.9 km/h 82% 0 mm 0 W/m2
00:59 17.7 °C 14.6 °C 1006.3 hPa SSW 7.7 km/h 16.1 km/h 82% 0 mm 0 W/m2
01:04 17.6 °C 14.4 °C 1006.3 hPa SSW 5.1 km/h 12.9 km/h 82% 0 mm 0 W/m2
01:09 17.4 °C 14.5 °C 1006.3 hPa SSW 5.5 km/h 12.9 km/h 82.8% 0 mm 0 W/m2
01:14 17.3 °C 14.4 °C 1006.3 hPa SSW 6.6 km/h 16.1 km/h 83% 0 mm 0 W/m2
01:19 17.2 °C 14.3 °C 1006.3 hPa SSW 5.8 km/h 14.5 km/h 83% 0 mm 0 W/m2
01:24 17.1 °C 14.3 °C 1006.3 hPa SSW 6 km/h 14.5 km/h 83.9% 0 mm 0 W/m2
01:29 17 °C 14.3 °C 1006.3 hPa SSW 6.4 km/h 12.9 km/h 84% 0 mm 0 W/m2
01:34 16.9 °C 14.2 °C 1006.3 hPa SSW 7.1 km/h 17.7 km/h 84.2% 0 mm 0 W/m2
01:39 16.8 °C 14.3 °C 1006.3 hPa SSW 4.8 km/h 17.7 km/h 85% 0 mm 0 W/m2
01:44 16.8 °C 14.2 °C 1006.3 hPa SSW 4.7 km/h 11.3 km/h 85% 0 mm 0 W/m2
01:49 16.7 °C 14.2 °C 1006.3 hPa South 5.6 km/h 14.5 km/h 85% 0 mm 0 W/m2
01:54 16.6 °C 14.2 °C 1006.3 hPa SSW 5.1 km/h 14.5 km/h 85.5% 0 mm 0 W/m2
01:59 16.5 °C 14.2 °C 1006.3 hPa SW 5.1 km/h 12.9 km/h 86% 0 mm 0 W/m2
02:04 16.5 °C 14.1 °C 1006.3 hPa SSW 6.1 km/h 16.1 km/h 86% 0 mm 0 W/m2
02:09 16.4 °C 14.1 °C 1006 hPa SW 5.3 km/h 14.5 km/h 86% 0 mm 0 W/m2
02:14 16.3 °C 14 °C 1006 hPa SSW 5.8 km/h 11.3 km/h 86.2% 0 mm 0 W/m2
02:19 16.2 °C 14.1 °C 1006 hPa SSW 6.4 km/h 14.5 km/h 87% 0 mm 0 W/m2
02:24 16.2 °C 14 °C 1006 hPa SW 4.7 km/h 11.3 km/h 87% 0 mm 0 W/m2
02:29 16.1 °C 13.9 °C 1006 hPa SSW 5.1 km/h 11.3 km/h 87% 0 mm 0 W/m2
02:34 15.9 °C 13.8 °C 1005.6 hPa SSW 4.2 km/h 9.7 km/h 87.2% 0 mm 0 W/m2
02:39 15.9 °C 13.9 °C 1005.6 hPa SSW 5.6 km/h 14.5 km/h 88% 0 mm 0 W/m2
02:44 15.8 °C 13.8 °C 1005.6 hPa SSW 5.3 km/h 11.3 km/h 88% 0 mm 0 W/m2
02:49 15.8 °C 13.8 °C 1005.6 hPa SSW 4.7 km/h 11.3 km/h 88% 0 mm 0 W/m2
02:54 15.7 °C 13.8 °C 1005.6 hPa SSW 3.7 km/h 8 km/h 88.3% 0 mm 0 W/m2
02:59 15.7 °C 13.8 °C 1005.3 hPa SSW 4.3 km/h 8 km/h 89% 0 mm 0 W/m2
03:04 15.6 °C 13.8 °C 1005.3 hPa SSW 5.1 km/h 14.5 km/h 89% 0 mm 0 W/m2
03:09 15.5 °C 13.7 °C 1005.3 hPa SSW 4.3 km/h 11.3 km/h 89% 0 mm 0 W/m2
03:14 15.4 °C 13.6 °C 1005.3 hPa SSW 3.9 km/h 11.3 km/h 89% 0 mm 0 W/m2
03:19 15.3 °C 13.5 °C 1005.3 hPa SSW 4.3 km/h 9.7 km/h 89% 0 mm 0 W/m2
03:24 15.2 °C 13.5 °C 1005.3 hPa SSW 5.1 km/h 11.3 km/h 89.5% 0 mm 0 W/m2
03:29 15.2 °C 13.6 °C 1005 hPa SSW 4.7 km/h 9.7 km/h 90% 0 mm 0 W/m2
03:34 15.1 °C 13.5 °C 1005.3 hPa SW 3.4 km/h 8 km/h 90% 0 mm 0 W/m2
03:39 15.1 °C 13.4 °C 1005 hPa SW 3.7 km/h 11.3 km/h 90% 0 mm 0 W/m2
03:44 15.1 °C 13.4 °C 1005.3 hPa SW 3.1 km/h 8 km/h 90% 0 mm 0 W/m2
03:49 15 °C 13.4 °C 1005 hPa SSW 3.9 km/h 9.7 km/h 90% 0 mm 0 W/m2
03:54 14.9 °C 13.4 °C 1005 hPa SSW 3.9 km/h 9.7 km/h 90.8% 0 mm 0 W/m2
03:59 14.9 °C 13.4 °C 1005 hPa SSW 4.5 km/h 11.3 km/h 91% 0 mm 0 W/m2
04:04 14.9 °C 13.4 °C 1005 hPa SSW 4 km/h 9.7 km/h 91% 0 mm 0 W/m2
04:09 14.8 °C 13.4 °C 1005 hPa SSW 3.5 km/h 11.3 km/h 91% 0 mm 0 W/m2
04:14 14.8 °C 13.3 °C 1005 hPa SW 4.2 km/h 11.3 km/h 91% 0 mm 0 W/m2
04:19 14.8 °C 13.3 °C 1005 hPa SSW 4 km/h 12.9 km/h 91% 0 mm 0 W/m2
04:24 14.7 °C 13.3 °C 1004.6 hPa SSW 2.6 km/h 9.7 km/h 91% 0 mm 0 W/m2
04:29 14.7 °C 13.3 °C 1004.6 hPa SW 2.7 km/h 6.4 km/h 91.7% 0 mm 0 W/m2
04:34 14.6 °C 13.3 °C 1004.6 hPa SW 4.3 km/h 12.9 km/h 92% 0 mm 0 W/m2
04:39 14.6 °C 13.3 °C 1004.6 hPa SW 3.9 km/h 9.7 km/h 92% 0 mm 0 W/m2
04:44 14.6 °C 13.3 °C 1004.6 hPa SW 4 km/h 9.7 km/h 92% 0 mm 0 W/m2
04:49 14.6 °C 13.3 °C 1004.6 hPa SW 4 km/h 9.7 km/h 92% 0 mm 0 W/m2
04:54 14.5 °C 13.2 °C 1004.6 hPa SSW 4.3 km/h 8 km/h 92% 0 mm 0 W/m2
04:59 14.4 °C 13.2 °C 1004.6 hPa SW 2.6 km/h 6.4 km/h 92% 0 mm 0 W/m2
05:04 14.4 °C 13.1 °C 1004.6 hPa SW 3.9 km/h 8 km/h 92% 0 mm 0 W/m2
05:09 14.4 °C 13.1 °C 1004.6 hPa SW 3.9 km/h 8 km/h 92% 0 mm 0 W/m2
05:14 14.3 °C 13.1 °C 1004.6 hPa SW 2.1 km/h 8 km/h 92.3% 0 mm 0 W/m2
05:19 14.3 °C 13.2 °C 1004.6 hPa SW 2.3 km/h 8 km/h 93% 0 mm 0 W/m2
05:24 14.2 °C 13.1 °C 1004.6 hPa SSW 2.4 km/h 6.4 km/h 93% 0 mm 0 W/m2
05:29 14.2 °C 13.1 °C 1004.6 hPa SW 2.3 km/h 6.4 km/h 93% 0 mm 0 W/m2
05:34 14.2 °C 13.1 °C 1004.6 hPa SW 2.3 km/h 4.8 km/h 93% 0 mm 0 W/m2
05:39 14.2 °C 13.1 °C 1004.6 hPa SW 2.6 km/h 6.4 km/h 93% 0 mm 0 W/m2
05:44 14.1 °C 13 °C 1004.6 hPa SW 2.1 km/h 4.8 km/h 93% 0 mm 0 W/m2
05:49 14.1 °C 13 °C 1004.6 hPa SW 2.4 km/h 6.4 km/h 93% 0 mm 0 W/m2
05:54 14.1 °C 12.9 °C 1004.6 hPa WSW 1.6 km/h 4.8 km/h 93% 0 mm 0 W/m2
05:59 13.9 °C 12.8 °C 1004.6 hPa SW 1.8 km/h 4.8 km/h 93% 0 mm 0 W/m2
06:04 13.9 °C 12.8 °C 1004.6 hPa SW 1.6 km/h 4.8 km/h 93% 0 mm 0 W/m2
06:09 13.8 °C 12.7 °C 1004.6 hPa SW 2.6 km/h 9.7 km/h 93% 0 mm 0 W/m2
06:14 13.8 °C 12.7 °C 1004.6 hPa SW 2.4 km/h 6.4 km/h 93% 0 mm 0 W/m2
06:19 13.7 °C 12.6 °C 1004.6 hPa SW 3.4 km/h 6.4 km/h 93% 0 mm 0 W/m2
06:24 13.7 °C 12.8 °C 1004.6 hPa SSW 2.9 km/h 8 km/h 93.9% 0 mm 0 W/m2
06:29 13.7 °C 12.7 °C 1004.6 hPa SSW 2.9 km/h 6.4 km/h 94% 0 mm 0 W/m2
06:34 13.7 °C 12.7 °C 1004.6 hPa SW 2.9 km/h 6.4 km/h 94% 0 mm 0 W/m2
06:39 13.7 °C 12.7 °C 1004.6 hPa SW 2.3 km/h 4.8 km/h 94% 0 mm 0 W/m2
06:42 13.6 °C 12.7 °C 1004.6 hPa SW 4 km/h 6.4 km/h 94% 0 mm 0 W/m2
06:49 13.7 °C 12.7 °C 1006 hPa West 3.9 km/h 9.7 km/h 94% 0 mm 0 W/m2
06:54 13.7 °C 12.8 °C 1006 hPa West 2.4 km/h 6.4 km/h 94% 0 mm 0 W/m2
06:59 13.7 °C 12.8 °C 1006 hPa West 3.1 km/h 8 km/h 94% 0 mm 0 W/m2
07:04 13.7 °C 12.8 °C 1006 hPa WSW 4.8 km/h 9.7 km/h 94% 0 mm 5 W/m2
07:09 13.7 °C 12.8 °C 1006 hPa WSW 2.4 km/h 6.4 km/h 94% 0 mm 9 W/m2
07:14 13.7 °C 12.7 °C 1006 hPa West 2.3 km/h 4.8 km/h 94% 0 mm 12 W/m2
07:19 13.6 °C 12.7 °C 1006 hPa West 1.3 km/h 3.2 km/h 94% 0 mm 16 W/m2
07:24 13.5 °C 12.6 °C 1006.3 hPa West 1.4 km/h 3.2 km/h 94% 0 mm 21 W/m2
07:29 13.4 °C 12.5 °C 1006.3 hPa West 1.3 km/h 4.8 km/h 94% 0 mm 32 W/m2
07:34 13.4 °C 12.4 °C 1006.3 hPa West 1.4 km/h 4.8 km/h 94% 0 mm 49 W/m2
07:39 13.3 °C 12.4 °C 1006.7 hPa West 1.4 km/h 4.8 km/h 94% 0 mm 49 W/m2
07:44 13.4 °C 12.4 °C 1006.7 hPa West 1.8 km/h 4.8 km/h 94% 0 mm 28 W/m2
07:49 13.4 °C 12.5 °C 1006.7 hPa West 2.3 km/h 4.8 km/h 94% 0 mm 42 W/m2
07:54 13.5 °C 12.6 °C 1006.7 hPa WSW 3.4 km/h 6.4 km/h 94% 0 mm 32 W/m2
07:59 13.5 °C 12.6 °C 1006.3 hPa West 2.1 km/h 6.4 km/h 94% 0 mm 32 W/m2
08:04 13.4 °C 12.5 °C 1006.3 hPa WSW 2.6 km/h 6.4 km/h 94% 0 mm 49 W/m2
08:09 13.4 °C 12.4 °C 1006.3 hPa WSW 1.4 km/h 4.8 km/h 94% 0 mm 53 W/m2
08:14 13.3 °C 12.4 °C 1006.3 hPa WSW 2.4 km/h 6.4 km/h 94% 0 mm 63 W/m2
08:19 13.3 °C 12.4 °C 1006.3 hPa WSW 2.3 km/h 6.4 km/h 94% 0 mm 69 W/m2
08:24 13.3 °C 12.4 °C 1006.3 hPa WSW 2.9 km/h 6.4 km/h 94% 0 mm 70 W/m2
08:29 13.3 °C 12.4 °C 1006.3 hPa SW 3.2 km/h 6.4 km/h 94% 0 mm 91 W/m2
08:34 13.4 °C 12.5 °C 1006.3 hPa SW 3.7 km/h 9.7 km/h 94.6% 0 mm 93 W/m2
08:39 13.4 °C 12.6 °C 1006 hPa SW 3.5 km/h 8 km/h 95% 0 mm 109 W/m2
08:44 13.5 °C 12.7 °C 1006.3 hPa South 2.4 km/h 6.4 km/h 95% 0 mm 104 W/m2
08:49 13.6 °C 12.8 °C 1006 hPa SSW 4 km/h 9.7 km/h 95% 0 mm 109 W/m2
08:54 13.6 °C 12.8 °C 1006 hPa SW 3.9 km/h 9.7 km/h 95% 0 mm 125 W/m2
08:59 13.7 °C 12.9 °C 1006 hPa SW 3.1 km/h 8 km/h 95% 0 mm 142 W/m2
09:04 13.8 °C 13 °C 1006.3 hPa SW 2.9 km/h 6.4 km/h 95% 0 mm 142 W/m2
09:09 13.8 °C 13.1 °C 1006.3 hPa SW 2.9 km/h 4.8 km/h 95% 0 mm 137 W/m2
09:14 13.9 °C 13.1 °C 1006.3 hPa WSW 4.7 km/h 9.7 km/h 95% 0 mm 149 W/m2
09:19 13.9 °C 13.1 °C 1006.3 hPa SW 4.3 km/h 8 km/h 95% 0 mm 162 W/m2
09:24 13.9 °C 13.2 °C 1006.3 hPa SW 4.5 km/h 8 km/h 95% 0 mm 162 W/m2
09:29 14 °C 13.2 °C 1006.7 hPa SW 3.4 km/h 8 km/h 95% 0 mm 227 W/m2
09:34 14 °C 13.2 °C 1006.7 hPa SW 6.9 km/h 12.9 km/h 95% 0 mm 236 W/m2
09:39 14 °C 13.2 °C 1006.7 hPa SW 6.1 km/h 11.3 km/h 95% 0 mm 223 W/m2
09:44 14.1 °C 13.3 °C 1006.7 hPa SW 6 km/h 12.9 km/h 95% 0 mm 199 W/m2
09:49 14.1 °C 13.3 °C 1006.7 hPa SW 6.3 km/h 14.5 km/h 95% 0 mm 243 W/m2
09:54 14.1 °C 13.3 °C 1006.7 hPa SW 5.5 km/h 14.5 km/h 95% 0 mm 411 W/m2
09:59 14.2 °C 13.4 °C 1006.7 hPa SW 5.3 km/h 11.3 km/h 95% 0 mm 376 W/m2
10:04 14.3 °C 13.6 °C 1007 hPa WSW 4.3 km/h 11.3 km/h 95% 0 mm 415 W/m2
10:09 14.4 °C 13.6 °C 1007 hPa WSW 4 km/h 11.3 km/h 95% 0 mm 336 W/m2
10:14 14.8 °C 14 °C 1007.3 hPa SW 2.9 km/h 11.3 km/h 95% 0 mm 264 W/m2
10:19 15.1 °C 14.1 °C 1007.3 hPa WSW 4.7 km/h 11.3 km/h 94% 0 mm 255 W/m2
10:24 15.4 °C 14.3 °C 1007 hPa WSW 4.2 km/h 8 km/h 93.1% 0 mm 490 W/m2
10:29 15.8 °C 14.3 °C 1007 hPa WSW 4.3 km/h 9.7 km/h 91.3% 0 mm 476 W/m2
10:34 16.2 °C 14.4 °C 1007 hPa SW 4 km/h 8 km/h 89.4% 0 mm 482 W/m2
10:39 16.7 °C 14.4 °C 1007.3 hPa SW 4.2 km/h 11.3 km/h 86.8% 0 mm 510 W/m2
10:44 17.1 °C 14.4 °C 1007.3 hPa SSW 4.2 km/h 9.7 km/h 83.9% 0 mm 538 W/m2
10:49 17.7 °C 14.4 °C 1007 hPa South 2.4 km/h 6.4 km/h 81.1% 0 mm 570 W/m2
10:54 18 °C 14.3 °C 1007 hPa SW 5.1 km/h 9.7 km/h 78.9% 0 mm 603 W/m2
10:59 18.2 °C 14.1 °C 1007 hPa SSW 3.4 km/h 9.7 km/h 76.9% 0 mm 628 W/m2
11:04 18.7 °C 14.4 °C 1007 hPa WSW 2.1 km/h 4.8 km/h 76.1% 0 mm 656 W/m2
11:09 19.5 °C 14.4 °C 1007 hPa West 1.6 km/h 4.8 km/h 72.6% 0 mm 666 W/m2
11:14 20 °C 14.6 °C 1007 hPa WSW 2.7 km/h 6.4 km/h 71% 0 mm 679 W/m2
11:19 20.4 °C 14.6 °C 1007 hPa West 2.1 km/h 4.8 km/h 69% 0 mm 686 W/m2
11:24 20.8 °C 14.6 °C 1007 hPa West 2.1 km/h 9.7 km/h 67.7% 0 mm 696 W/m2
11:29 21.3 °C 14.2 °C 1007 hPa WNW 2.6 km/h 6.4 km/h 63.9% 0 mm 707 W/m2
11:34 21.6 °C 14.1 °C 1007 hPa NW 2.6 km/h 6.4 km/h 62.6% 0 mm 715 W/m2
11:39 21.6 °C 13.8 °C 1007 hPa West 2.4 km/h 6.4 km/h 61% 0 mm 724 W/m2
11:44 22.1 °C 13.8 °C 1007 hPa West 1 km/h 4.8 km/h 59.6% 0 mm 731 W/m2
11:49 22.6 °C 13.9 °C 1006.7 hPa West 3.2 km/h 8 km/h 58.2% 0 mm 740 W/m2
11:54 22.7 °C 13.6 °C 1006.7 hPa West 3.2 km/h 8 km/h 56.1% 0 mm 749 W/m2
11:59 22.9 °C 13.9 °C 1006.7 hPa WSW 2.9 km/h 6.4 km/h 57.2% 0 mm 752 W/m2
12:04 24 °C 14.3 °C 1006.7 hPa West 1.8 km/h 4.8 km/h 54.7% 0 mm 763 W/m2
12:09 24.6 °C 13.8 °C 1006.7 hPa WNW 2.9 km/h 6.4 km/h 50.9% 0 mm 766 W/m2
12:14 24.9 °C 13.9 °C 1006.7 hPa North 1.4 km/h 4.8 km/h 50.6% 0 mm 775 W/m2
12:19 25.3 °C 13.2 °C 1006.3 hPa West 3.5 km/h 8 km/h 47.3% 0 mm 780 W/m2
12:24 25.6 °C 13.4 °C 1006.3 hPa NNW 3.9 km/h 9.7 km/h 46.8% 0 mm 786 W/m2
12:29 25.8 °C 13.3 °C 1006.3 hPa WNW 2.7 km/h 9.7 km/h 45.9% 0 mm 791 W/m2
12:34 25.9 °C 13.3 °C 1006.3 hPa NNW 2.6 km/h 6.4 km/h 45.7% 0 mm 796 W/m2
12:39 26.4 °C 13.1 °C 1006.3 hPa North 2.9 km/h 6.4 km/h 43.7% 0 mm 802 W/m2
12:44 26.7 °C 12.5 °C 1006.3 hPa WNW 2.9 km/h 6.4 km/h 41.5% 0 mm 803 W/m2
12:49 27.2 °C 12.5 °C 1006 hPa WNW 2.4 km/h 6.4 km/h 40.1% 0 mm 807 W/m2
12:54 27.4 °C 11.4 °C 1006 hPa WSW 3.2 km/h 8 km/h 36.9% 0 mm 810 W/m2
12:59 27.9 °C 11.8 °C 1006 hPa NNW 2.1 km/h 8 km/h 36.8% 0 mm 810 W/m2
13:04 28.6 °C 11.6 °C 1006 hPa WSW 2.3 km/h 6.4 km/h 34.9% 0 mm 812 W/m2
13:09 28.2 °C 11.1 °C 1006 hPa SW 3.1 km/h 8 km/h 34.5% 0 mm 816 W/m2
13:14 28.4 °C 11.7 °C 1006 hPa WSW 3.9 km/h 9.7 km/h 35.5% 0 mm 817 W/m2
13:19 28.3 °C 11.2 °C 1006 hPa SW 3.7 km/h 9.7 km/h 34.5% 0 mm 814 W/m2
13:24 28.6 °C 11.2 °C 1005.6 hPa SW 1.8 km/h 4.8 km/h 34% 0 mm 800 W/m2
13:29 29 °C 11.2 °C 1005.6 hPa SW 3.7 km/h 9.7 km/h 33.1% 0 mm 779 W/m2
13:34 29.3 °C 8.9 °C 1005.6 hPa SW 4 km/h 8 km/h 28% 0 mm 761 W/m2
13:39 29.9 °C 8.2 °C 1005.3 hPa WSW 6 km/h 14.5 km/h 25.7% 0 mm 770 W/m2
13:44 30.4 °C 6.2 °C 1005.3 hPa West 4.2 km/h 11.3 km/h 21.8% 0 mm 789 W/m2
13:49 31.1 °C 5.7 °C 1005.3 hPa West 4.7 km/h 11.3 km/h 20.4% 0 mm 816 W/m2
13:54 31.2 °C 4.3 °C 1005.3 hPa West 6.1 km/h 16.1 km/h 18.2% 0 mm 821 W/m2
13:59 31.4 °C 4 °C 1005.3 hPa WNW 5.5 km/h 19.3 km/h 17.6% 0 mm 824 W/m2
14:04 31.4 °C 2.4 °C 1005.3 hPa WNW 7.6 km/h 20.9 km/h 15.7% 0 mm 817 W/m2
14:09 31.4 °C 2.6 °C 1005.3 hPa WNW 7.4 km/h 16.1 km/h 16% 0 mm 814 W/m2
14:14 31.3 °C 2.6 °C 1005.3 hPa WNW 7.1 km/h 19.3 km/h 16.1% 0 mm 812 W/m2
14:19 31.2 °C 1.5 °C 1005.3 hPa WNW 8.9 km/h 27.4 km/h 15% 0 mm 809 W/m2
14:24 31.2 °C 1.3 °C 1005.3 hPa WNW 6.3 km/h 14.5 km/h 14.8% 0 mm 802 W/m2
14:29 31.4 °C 2.8 °C 1005 hPa NW 6.9 km/h 12.9 km/h 16.2% 0 mm 796 W/m2
14:34 31.6 °C 2.2 °C 1005 hPa WNW 8.2 km/h 24.1 km/h 15.4% 0 mm 796 W/m2
14:39 31.5 °C 3 °C 1005 hPa WNW 6.4 km/h 16.1 km/h 16.4% 0 mm 791 W/m2
14:44 31.5 °C 1.5 °C 1005 hPa WNW 9.2 km/h 20.9 km/h 14.7% 0 mm 782 W/m2
14:49 31.4 °C 1.3 °C 1005 hPa NW 8.4 km/h 19.3 km/h 14.6% 0 mm 777 W/m2
14:54 31.2 °C 1.6 °C 1005 hPa NW 10.6 km/h 25.7 km/h 15% 0 mm 770 W/m2
14:59 31.2 °C 2.3 °C 1005 hPa NW 8.4 km/h 25.7 km/h 15.9% 0 mm 763 W/m2
15:04 31.3 °C 2.6 °C 1005 hPa NW 9.8 km/h 22.5 km/h 16.1% 0 mm 754 W/m2
15:09 31.2 °C 1.8 °C 1004.6 hPa WNW 9.5 km/h 19.3 km/h 15.4% 0 mm 747 W/m2
15:14 31.1 °C 2.6 °C 1004.6 hPa NW 7.2 km/h 19.3 km/h 16.4% 0 mm 742 W/m2
15:19 31.1 °C 2.7 °C 1004.6 hPa WNW 8.4 km/h 20.9 km/h 16.4% 0 mm 731 W/m2
15:24 31.2 °C 3 °C 1004.6 hPa NW 6.6 km/h 14.5 km/h 16.7% 0 mm 726 W/m2
15:29 31.3 °C 3.7 °C 1004.6 hPa NW 6.3 km/h 14.5 km/h 17.4% 0 mm 717 W/m2
15:34 31.4 °C 3.4 °C 1004.3 hPa NW 9.5 km/h 25.7 km/h 17% 0 mm 705 W/m2
15:39 31.1 °C 2.3 °C 1004.3 hPa WNW 8 km/h 17.7 km/h 16% 0 mm 698 W/m2
15:44 30.9 °C 2.8 °C 1004.3 hPa WNW 6.4 km/h 17.7 km/h 16.7% 0 mm 687 W/m2
15:49 30.9 °C 2.6 °C 1004.3 hPa NW 10 km/h 24.1 km/h 16.4% 0 mm 682 W/m2
15:54 30.9 °C 2.6 °C 1004.3 hPa WNW 8.2 km/h 16.1 km/h 16.4% 0 mm 671 W/m2
15:59 30.9 °C 2.2 °C 1004.3 hPa NW 7.2 km/h 16.1 km/h 16% 0 mm 661 W/m2
16:04 30.9 °C 1.9 °C 1004.3 hPa WNW 7.4 km/h 19.3 km/h 15.7% 0 mm 650 W/m2
16:09 31 °C 2 °C 1004.3 hPa WNW 6.8 km/h 17.7 km/h 15.7% 0 mm 633 W/m2
16:14 31.1 °C 2.5 °C 1004.3 hPa WNW 8 km/h 17.7 km/h 16.1% 0 mm 624 W/m2
16:19 31.1 °C 2.6 °C 1004.3 hPa NW 6.6 km/h 14.5 km/h 16.2% 0 mm 610 W/m2
16:24 31.1 °C 2.1 °C 1004.3 hPa NW 6.9 km/h 12.9 km/h 15.7% 0 mm 599 W/m2
16:29 31.1 °C 1.6 °C 1004.3 hPa West 8.7 km/h 20.9 km/h 15.2% 0 mm 589 W/m2
16:34 30.8 °C 2.2 °C 1004.3 hPa WNW 6.9 km/h 20.9 km/h 16.1% 0 mm 573 W/m2
16:39 30.8 °C 2 °C 1004.3 hPa WNW 9.3 km/h 19.3 km/h 15.8% 0 mm 563 W/m2
16:44 30.7 °C 2.2 °C 1004.3 hPa NNW 6.8 km/h 19.3 km/h 16.2% 0 mm 548 W/m2
16:49 30.7 °C 2.3 °C 1004.3 hPa WNW 4.5 km/h 12.9 km/h 16.3% 0 mm 534 W/m2
16:54 31 °C 2.4 °C 1004.3 hPa NNW 7.4 km/h 17.7 km/h 16.2% 0 mm 520 W/m2
16:59 31.1 °C 2.1 °C 1004.3 hPa West 4.5 km/h 12.9 km/h 15.8% 0 mm 508 W/m2
17:04 31.2 °C 2 °C 1004.3 hPa West 7.1 km/h 16.1 km/h 15.5% 0 mm 492 W/m2
17:09 31.1 °C 2.3 °C 1004.3 hPa West 4.7 km/h 14.5 km/h 15.9% 0 mm 478 W/m2
17:14 31.2 °C 2.2 °C 1004.3 hPa West 5 km/h 16.1 km/h 15.8% 0 mm 461 W/m2
17:19 31.3 °C 1.6 °C 1004.3 hPa WNW 6.6 km/h 19.3 km/h 15.1% 0 mm 448 W/m2
17:24 31.2 °C 1.3 °C 1004.3 hPa West 7.7 km/h 20.9 km/h 14.8% 0 mm 432 W/m2
17:29 30.9 °C 1.5 °C 1004.3 hPa WNW 5.5 km/h 20.9 km/h 15.2% 0 mm 415 W/m2
17:34 30.9 °C 1.8 °C 1004.3 hPa NW 3.9 km/h 8 km/h 15.5% 0 mm 397 W/m2
17:39 31.1 °C 2.3 °C 1004.3 hPa NNW 5.6 km/h 14.5 km/h 16% 0 mm 385 W/m2
17:44 31 °C 1.9 °C 1004.3 hPa WNW 3.4 km/h 11.3 km/h 15.6% 0 mm 367 W/m2
17:49 30.9 °C 2.1 °C 1004.3 hPa WNW 4.7 km/h 9.7 km/h 15.9% 0 mm 352 W/m2
17:54 30.8 °C 2 °C 1004.3 hPa NW 4.8 km/h 9.7 km/h 15.8% 0 mm 336 W/m2
66th and South
Compliments of Weather Underground - 10.36 mb